PASIPAPG

Guest
Details From PASI - SITKA ROCKY GUTIERREZ
To PAPG - PETERSBURG JAMES A JOHNSON
Flight Number -
Tags generated
Created
Modified
Stats Distance 83 nm / 154 km
Max Altitude 3,200 ft / 975 m
Waypoints 3
Social Downloads 1
Likes 0
Share VATSIM

Download

Looking for another format? Having issues loading an existing format? Contact us
Advertisement - Login to hide

Notes

Basic altitude profile: - Ascent Rate: 1000ft/min - Ascent Speed: 110kts - Cruise Altitude: 5000ft - Cruise Speed: 205kts - Descent Rate: 750ft/min - Descent Speed: 120kts Options: - Use NATs: yes - Use PACOTS: yes - Use low airways: yes - Use high airways: yes

Route

PASI TURKS PAPG

ID Type Via Altitude Latitude Longitude Leg Dist Tot Dist Heading (true) Name
O PASI APT - 0 ft / 0 m 57.04713˚ -135.36160˚ - 0 nm - SITKA ROCKY GUTIERREZ
TURKS FIX - 3,200 ft / 975 m 56.71661˚ -133.38462˚ 67 nm 67 nm 106° / 108° -
O PAPG APT - 0 ft / 0 m 56.80165˚ -132.94529˚ 15 nm 83 nm 70° / 71° PETERSBURG JAMES A JOHNSON

Altitude Profile

Advertisement - Login to hide

PASI

Details ICAO PASI (SIT)
Name SITKA ROCKY GUTIERREZ
Region USA (Alaska)
Timezone America/Juneau (UTC-9.0)
Stats Elevation 21 ft / 6 m (AMSL)
Location 57.047128° -135.361597°
Runways 1
Magnetic Variation 18.750° E

METAR

PASI 162153Z 25007KT 10SM -RA OVC034 06/04 A2951

Decode

TAF

TAF AMD PASI 161936Z 1620/1718 23011KT 4SM -SHRA SCT015 BKN025 OVC035 WS020/27025KT TEMPO 1620/1622 2SM -SHRA BR SCT005 OVC015 FM170000 24012KT P6SM -SHRA BKN035 OVC050

Decode

Departure Runways

ID Width Length Bearing (true) Bearing (mag) Surface Threshold Offset Overrun Length
11 150 ft / 46 m 6,485 ft / 1,977 m 135.57° 116.82° Asphalt 0 ft / 0 m 0 ft / 0 m
29 150 ft / 46 m 6,485 ft / 1,977 m 315.59° 296.84° Asphalt 0 ft / 0 m 0 ft / 0 m

PAPG

Details ICAO PAPG (PSG)
Name PETERSBURG JAMES A JOHNSON
Region USA (Alaska)
Timezone America/Juneau (UTC-9.0)
Stats Elevation 105 ft / 32 m (AMSL)
Location 56.801651° -132.945289°
Runways 1
Magnetic Variation 18.865° E

METAR

PAPG 162156Z 00000KT 10SM -RA OVC020 04/03 A2955 RMK AO2 SLP009 P0007 T00390028

Decode

TAF

PAPG 161739Z 1618/1718 VRB04KT 6SM -RA BR SCT015 OVC025 TEMPO 1619/1621 12012KT 4SM RA BR BKN015 OVC025 FM162100 22008KT 6SM -SHRA BR SCT015 OVC025 WS020/27025KT FM171200 VRB03KT P6SM -SHRA SCT025 BKN035 OVC040

Decode

Destination Runways

ID Width Length Bearing (true) Bearing (mag) Surface Threshold Offset Overrun Length
04 150 ft / 46 m 5,982 ft / 1,823 m 70.70° 51.84° Asphalt 0 ft / 0 m 0 ft / 0 m
22 150 ft / 46 m 5,982 ft / 1,823 m 250.73° 231.87° Asphalt 0 ft / 0 m 0 ft / 0 m

Approach Navaids

Runway Type Ident Frequency Range Bearing (true) Bearing (mag) Slope Elevation
22 Localiser IPSG 110.50 MHz 18 nm / 33 km 185.00° 166.14° - 151 ft / 46 m (AMSL)
22 DME IPSG 110.50 MHz 18 nm / 33 km - - - 164 ft / 50 m (AMSL)

Popular Alternatives